Emerald Express — HO2486 — position and weather

sailwx.info

Track history (hours):
 
Tides and Currents Weather Stations Pressure Air Temp Water Temp Dewpoint Dewpoint Depression Visibility Wind Speed Wind Dir Waves Ship Positions

Emerald Express

Last reported at 2018-Feb-19 06:41 UTC. Time now 2018-Feb-21 01:53 UTC.
Position N 24°02' W 075°58'.

Length 53 m; draft 2 m.

Type: Cargo ship. MMSI: 354580000.

Date/timePositionNaut miles runAvg speedWind from/ knotsBaromVisibWave heightAir tempDewpointWater temp
2018-Feb-19 06:41N 24°02' W 075°58'1 7.8
2018-Feb-19 06:30N 24°03' W 075°60'4 7.9
2018-Feb-19 06:00N 24°05' W 076°04'4 7.8
2018-Feb-19 05:31N 24°06' W 076°07'4 7.8
2018-Feb-19 05:01N 24°08' W 076°11'4 8.3
2018-Feb-19 04:30N 24°10' W 076°15'4 8.8
2018-Feb-19 04:00N 24°12' W 076°20'4 8.9
2018-Feb-19 03:30N 24°14' W 076°24'198 4.7
2018-Feb-17 09:32N 25°50' W 079°34'1 7.7
2018-Feb-17 09:25N 25°51' W 079°35'4 7.2
2018-Feb-17 08:55N 25°53' W 079°39'3 6.6
2018-Feb-17 08:31N 25°54' W 079°41'3 6.5
2018-Feb-17 08:01N 25°55' W 079°45'3 6.4
2018-Feb-17 07:30N 25°57' W 079°48'3 6.3
2018-Feb-17 07:01N 25°59' W 079°51'3 6.4
2018-Feb-17 06:31N 26°00' W 079°54'3 6.6
2018-Feb-17 06:00N 26°02' W 079°57'3 6.6
2018-Feb-17 05:30N 26°03' W 080°00'4 7.1
2018-Feb-17 05:01N 26°05' W 080°04'3 5.6
2018-Feb-17 04:31N 26°05' W 080°07'1 2.7
2018-Feb-17 04:00N 26°04' W 080°08'0 0.0
2018-Feb-17 03:31N 26°04' W 080°08'0 0.0
2018-Feb-17 03:01N 26°04' W 080°08'0 0.0
2018-Feb-17 02:31N 26°04' W 080°08'0 0.0
2018-Feb-17 02:00N 26°04' W 080°08'0 0.0
2018-Feb-17 01:30N 26°04' W 080°08'0 0.0
2018-Feb-17 01:01N 26°04' W 080°08'0 0.0
2018-Feb-17 00:31N 26°04' W 080°08'0 0.0
2018-Feb-17 00:01N 26°04' W 080°08'0 0.0
2018-Feb-16 23:31N 26°04' W 080°08'0 0.0
2018-Feb-16 23:01N 26°04' W 080°08'0 0.0
2018-Feb-16 22:30N 26°04' W 080°08'0 0.0
2018-Feb-16 22:00N 26°04' W 080°08'0 0.0
2018-Feb-16 21:30N 26°04' W 080°08'0 0.0
2018-Feb-16 21:00N 26°04' W 080°08'0 0.0
2018-Feb-16 20:30N 26°04' W 080°08'0 0.0
2018-Feb-16 20:00N 26°04' W 080°08'1 1.2
2018-Feb-16 19:31N 26°04' W 080°07'2 3.5
2018-Feb-16 19:01N 26°06' W 080°07'4 7.6
2018-Feb-16 18:31N 26°05' W 080°03'510.6
2018-Feb-16 18:00N 26°03' W 079°57'510.4
2018-Feb-16 17:31N 26°02' W 079°52'510.5
2018-Feb-16 17:00N 26°00' W 079°46'510.6
2018-Feb-16 16:30N 25°59' W 079°40'510.6
2018-Feb-16 16:01N 25°57' W 079°35'9 0.2
2018-Feb-14 21:38N 26°06' W 079°33'2 9.1
2018-Feb-14 21:28N 26°06' W 079°35'4 9.0
2018-Feb-14 21:01N 26°06' W 079°39'4 8.7
2018-Feb-14 20:31N 26°06' W 079°44'5 8.5
2018-Feb-14 19:58N 26°05' W 079°49'4 8.5
2018-Feb-14 19:31N 26°05' W 079°53'4 8.1
2018-Feb-14 19:00N 26°05' W 079°58'4 8.3
2018-Feb-14 18:30N 26°05' W 080°03'4 7.5
2018-Feb-14 18:00N 26°05' W 080°07'1 2.7
2018-Feb-14 17:30N 26°04' W 080°07'1 1.5
2018-Feb-14 17:00N 26°04' W 080°08'0 0.1
2018-Feb-14 16:30N 26°04' W 080°08'0 0.0
2018-Feb-14 16:00N 26°04' W 080°08'0 0.0
2018-Feb-14 15:30N 26°04' W 080°08'0 0.0
2018-Feb-14 15:01N 26°04' W 080°08'0 0.0
2018-Feb-14 14:30N 26°04' W 080°08'0 0.0
2018-Feb-14 14:00N 26°04' W 080°08'0 0.0
2018-Feb-14 13:31N 26°04' W 080°08'0 0.0
2018-Feb-14 13:00N 26°04' W 080°08'0 0.0
2018-Feb-14 12:31N 26°04' W 080°08'1 1.9
2018-Feb-14 12:01N 26°04' W 080°07'2 4.8
2018-Feb-14 11:31N 26°05' W 080°05'510.1
2018-Feb-14 11:00N 26°03' W 079°60'4 7.0
2018-Feb-14 10:30N 26°01' W 079°56'4 7.2
2018-Feb-14 10:00N 26°00' W 079°52'4 7.7
2018-Feb-14 09:30N 25°59' W 079°48'4 7.9
2018-Feb-14 09:00N 25°59' W 079°44'4 8.0
2018-Feb-14 08:29N 25°58' W 079°39'4 8.4
2018-Feb-14 08:01N 25°57' W 079°35'201 7.1
2018-Feb-13 03:41N 24°13' W 076°25'2 9.7
2018-Feb-13 03:28N 24°11' W 076°23'4 9.9
2018-Feb-13 03:00N 24°08' W 076°20'5 9.7
2018-Feb-13 02:30N 24°04' W 076°17'5 9.8
2018-Feb-13 02:00N 24°00' W 076°13'5 9.6
2018-Feb-13 01:31N 23°57' W 076°10'5 9.7
2018-Feb-13 01:00N 23°53' W 076°06'5 9.4
2018-Feb-13 00:31N 23°49' W 076°03'5 9.6
2018-Feb-13 00:01N 23°46' W 075°59'5 9.7
2018-Feb-12 23:29N 23°42' W 075°56'2 0.3
2018-Feb-12 16:19N 23°41' W 075°54'3 8.3
2018-Feb-12 16:00N 23°43' W 075°56'4 8.2
2018-Feb-12 15:31N 23°46' W 075°59'4 8.2
2018-Feb-12 15:00N 23°49' W 076°02'4 8.0
2018-Feb-12 14:30N 23°52' W 076°05'4 7.8
2018-Feb-12 14:00N 23°55' W 076°08'4 7.7
2018-Feb-12 13:31N 23°58' W 076°10'4 7.6
2018-Feb-12 13:01N 24°01' W 076°13'4 7.5
2018-Feb-12 12:30N 24°03' W 076°16'4 7.3
2018-Feb-12 12:01N 24°06' W 076°18'4 7.1
2018-Feb-12 11:30N 24°09' W 076°21'3 6.8
2018-Feb-12 11:01N 24°11' W 076°24'3 6.6
2018-Feb-12 10:30N 24°14' W 076°26'203 7.7
2018-Feb-11 08:19N 25°58' W 079°38'2 7.3
2018-Feb-11 07:59N 25°59' W 079°40'3 7.0
2018-Feb-11 07:30N 25°60' W 079°44'3 6.8
2018-Feb-11 07:00N 26°01' W 079°48'3 6.4
2018-Feb-11 06:30N 26°02' W 079°51'3 6.3
2018-Feb-11 06:00N 26°03' W 079°54'3 6.0
2018-Feb-11 05:30N 26°03' W 079°58'3 6.1
2018-Feb-11 05:00N 26°04' W 080°01'3 7.0
2018-Feb-11 04:30N 26°05' W 080°05'2 4.6
2018-Feb-11 04:01N 26°04' W 080°07'0 0.8
2018-Feb-11 03:30N 26°05' W 080°07'0 0.7
2018-Feb-11 03:00N 26°04' W 080°07'0 0.0
2018-Feb-11 02:30N 26°04' W 080°07'0 0.4
2018-Feb-11 02:00N 26°04' W 080°07'1 2.5
2018-Feb-11 01:31N 26°04' W 080°08'0 0.1
2018-Feb-11 01:00N 26°04' W 080°08'0 0.0
2018-Feb-11 00:31N 26°04' W 080°08'0 0.0
2018-Feb-11 00:01N 26°04' W 080°08'0 0.0
2018-Feb-10 23:30N 26°04' W 080°08'0 0.0
2018-Feb-10 23:01N 26°04' W 080°08'0 0.0
2018-Feb-10 22:31N 26°04' W 080°08'0 0.0
2018-Feb-10 22:01N 26°04' W 080°08'0 0.0
2018-Feb-10 21:31N 26°04' W 080°08'0 0.0
2018-Feb-10 21:01N 26°04' W 080°08'0 0.0
2018-Feb-10 20:31N 26°04' W 080°08'0 0.0
2018-Feb-10 20:00N 26°04' W 080°08'0 0.0
2018-Feb-10 19:31N 26°04' W 080°08'0 0.0
2018-Feb-10 19:01N 26°04' W 080°08'0 0.0
2018-Feb-10 18:31N 26°04' W 080°08'0 0.0
2018-Feb-10 18:01N 26°04' W 080°08'0 0.0
2018-Feb-10 17:30N 26°04' W 080°08'0 0.0
2018-Feb-10 17:00N 26°04' W 080°08'0 0.0
2018-Feb-10 16:30N 26°04' W 080°08'0 0.0
2018-Feb-10 16:01N 26°04' W 080°08'0 0.0
2018-Feb-10 15:30N 26°04' W 080°08'0 0.0
2018-Feb-10 15:00N 26°04' W 080°08'0 0.0
2018-Feb-10 14:31N 26°04' W 080°08'0 0.0
2018-Feb-10 14:01N 26°04' W 080°08'0 0.0
2018-Feb-10 13:30N 26°04' W 080°08'0 0.0
2018-Feb-10 13:01N 26°04' W 080°08'0 0.4
2018-Feb-10 12:30N 26°04' W 080°08'1 2.1
2018-Feb-10 12:00N 26°04' W 080°07'1 3.0
2018-Feb-10 11:30N 26°06' W 080°06'5 9.7
2018-Feb-10 10:59N 26°04' W 080°01'5 9.8
2018-Feb-10 10:29N 26°01' W 079°56'4 9.3
2018-Feb-10 10:00N 26°00' W 079°51'5 9.3
2018-Feb-10 09:30N 25°59' W 079°46'5 9.3
2018-Feb-10 09:00N 25°59' W 079°41'5 9.7
2018-Feb-10 08:29N 25°57' W 079°36'  
Track history (hours):
 
Tides and Currents Weather Stations Pressure Air Temp Water Temp Dewpoint Dewpoint Depression Visibility Wind Speed Wind Dir Waves Ship Positions

Emerald Express

Last reported at 2018-Feb-19 06:41 UTC. Time now 2018-Feb-21 01:53 UTC.
Position N 24°02' W 075°58'.

Length 53 m; draft 2 m.

Type: Cargo ship. MMSI: 354580000.

Date/timePositionNaut miles runAvg speedWind from/ knotsBaromVisibWave heightAir tempDewpointWater temp
2018-Feb-19 06:41N 24°02' W 075°58'1 7.8
2018-Feb-19 06:30N 24°03' W 075°60'4 7.9
2018-Feb-19 06:00N 24°05' W 076°04'4 7.8
2018-Feb-19 05:31N 24°06' W 076°07'4 7.8
2018-Feb-19 05:01N 24°08' W 076°11'4 8.3
2018-Feb-19 04:30N 24°10' W 076°15'4 8.8
2018-Feb-19 04:00N 24°12' W 076°20'4 8.9
2018-Feb-19 03:30N 24°14' W 076°24'198 4.7
2018-Feb-17 09:32N 25°50' W 079°34'1 7.7
2018-Feb-17 09:25N 25°51' W 079°35'4 7.2
2018-Feb-17 08:55N 25°53' W 079°39'3 6.6
2018-Feb-17 08:31N 25°54' W 079°41'3 6.5
2018-Feb-17 08:01N 25°55' W 079°45'3 6.4
2018-Feb-17 07:30N 25°57' W 079°48'3 6.3
2018-Feb-17 07:01N 25°59' W 079°51'3 6.4
2018-Feb-17 06:31N 26°00' W 079°54'3 6.6
2018-Feb-17 06:00N 26°02' W 079°57'3 6.6
2018-Feb-17 05:30N 26°03' W 080°00'4 7.1
2018-Feb-17 05:01N 26°05' W 080°04'3 5.6
2018-Feb-17 04:31N 26°05' W 080°07'1 2.7
2018-Feb-17 04:00N 26°04' W 080°08'0 0.0
2018-Feb-17 03:31N 26°04' W 080°08'0 0.0
2018-Feb-17 03:01N 26°04' W 080°08'0 0.0
2018-Feb-17 02:31N 26°04' W 080°08'0 0.0
2018-Feb-17 02:00N 26°04' W 080°08'0 0.0
2018-Feb-17 01:30N 26°04' W 080°08'0 0.0
2018-Feb-17 01:01N 26°04' W 080°08'0 0.0
2018-Feb-17 00:31N 26°04' W 080°08'0 0.0
2018-Feb-17 00:01N 26°04' W 080°08'0 0.0
2018-Feb-16 23:31N 26°04' W 080°08'0 0.0
2018-Feb-16 23:01N 26°04' W 080°08'0 0.0
2018-Feb-16 22:30N 26°04' W 080°08'0 0.0
2018-Feb-16 22:00N 26°04' W 080°08'0 0.0
2018-Feb-16 21:30N 26°04' W 080°08'0 0.0
2018-Feb-16 21:00N 26°04' W 080°08'0 0.0
2018-Feb-16 20:30N 26°04' W 080°08'0 0.0
2018-Feb-16 20:00N 26°04' W 080°08'1 1.2
2018-Feb-16 19:31N 26°04' W 080°07'2 3.5
2018-Feb-16 19:01N 26°06' W 080°07'4 7.6
2018-Feb-16 18:31N 26°05' W 080°03'510.6
2018-Feb-16 18:00N 26°03' W 079°57'510.4
2018-Feb-16 17:31N 26°02' W 079°52'510.5
2018-Feb-16 17:00N 26°00' W 079°46'510.6
2018-Feb-16 16:30N 25°59' W 079°40'510.6
2018-Feb-16 16:01N 25°57' W 079°35'9 0.2
2018-Feb-14 21:38N 26°06' W 079°33'2 9.1
2018-Feb-14 21:28N 26°06' W 079°35'4 9.0
2018-Feb-14 21:01N 26°06' W 079°39'4 8.7
2018-Feb-14 20:31N 26°06' W 079°44'5 8.5
2018-Feb-14 19:58N 26°05' W 079°49'4 8.5
2018-Feb-14 19:31N 26°05' W 079°53'4 8.1
2018-Feb-14 19:00N 26°05' W 079°58'4 8.3
2018-Feb-14 18:30N 26°05' W 080°03'4 7.5
2018-Feb-14 18:00N 26°05' W 080°07'1 2.7
2018-Feb-14 17:30N 26°04' W 080°07'1 1.5
2018-Feb-14 17:00N 26°04' W 080°08'0 0.1
2018-Feb-14 16:30N 26°04' W 080°08'0 0.0
2018-Feb-14 16:00N 26°04' W 080°08'0 0.0
2018-Feb-14 15:30N 26°04' W 080°08'0 0.0
2018-Feb-14 15:01N 26°04' W 080°08'0 0.0
2018-Feb-14 14:30N 26°04' W 080°08'0 0.0
2018-Feb-14 14:00N 26°04' W 080°08'0 0.0
2018-Feb-14 13:31N 26°04' W 080°08'0 0.0
2018-Feb-14 13:00N 26°04' W 080°08'0 0.0
2018-Feb-14 12:31N 26°04' W 080°08'1 1.9
2018-Feb-14 12:01N 26°04' W 080°07'2 4.8
2018-Feb-14 11:31N 26°05' W 080°05'510.1
2018-Feb-14 11:00N 26°03' W 079°60'4 7.0
2018-Feb-14 10:30N 26°01' W 079°56'4 7.2
2018-Feb-14 10:00N 26°00' W 079°52'4 7.7
2018-Feb-14 09:30N 25°59' W 079°48'4 7.9
2018-Feb-14 09:00N 25°59' W 079°44'4 8.0
2018-Feb-14 08:29N 25°58' W 079°39'4 8.4
2018-Feb-14 08:01N 25°57' W 079°35'201 7.1
2018-Feb-13 03:41N 24°13' W 076°25'2 9.7
2018-Feb-13 03:28N 24°11' W 076°23'4 9.9
2018-Feb-13 03:00N 24°08' W 076°20'5 9.7
2018-Feb-13 02:30N 24°04' W 076°17'5 9.8
2018-Feb-13 02:00N 24°00' W 076°13'5 9.6
2018-Feb-13 01:31N 23°57' W 076°10'5 9.7
2018-Feb-13 01:00N 23°53' W 076°06'5 9.4
2018-Feb-13 00:31N 23°49' W 076°03'5 9.6
2018-Feb-13 00:01N 23°46' W 075°59'5 9.7
2018-Feb-12 23:29N 23°42' W 075°56'2 0.3
2018-Feb-12 16:19N 23°41' W 075°54'3 8.3
2018-Feb-12 16:00N 23°43' W 075°56'4 8.2
2018-Feb-12 15:31N 23°46' W 075°59'4 8.2
2018-Feb-12 15:00N 23°49' W 076°02'4 8.0
2018-Feb-12 14:30N 23°52' W 076°05'4 7.8
2018-Feb-12 14:00N 23°55' W 076°08'4 7.7
2018-Feb-12 13:31N 23°58' W 076°10'4 7.6
2018-Feb-12 13:01N 24°01' W 076°13'4 7.5
2018-Feb-12 12:30N 24°03' W 076°16'4 7.3
2018-Feb-12 12:01N 24°06' W 076°18'4 7.1
2018-Feb-12 11:30N 24°09' W 076°21'3 6.8
2018-Feb-12 11:01N 24°11' W 076°24'3 6.6
2018-Feb-12 10:30N 24°14' W 076°26'203 7.7
2018-Feb-11 08:19N 25°58' W 079°38'2 7.3
2018-Feb-11 07:59N 25°59' W 079°40'3 7.0
2018-Feb-11 07:30N 25°60' W 079°44'3 6.8
2018-Feb-11 07:00N 26°01' W 079°48'3 6.4
2018-Feb-11 06:30N 26°02' W 079°51'3 6.3
2018-Feb-11 06:00N 26°03' W 079°54'3 6.0
2018-Feb-11 05:30N 26°03' W 079°58'3 6.1
2018-Feb-11 05:00N 26°04' W 080°01'3 7.0
2018-Feb-11 04:30N 26°05' W 080°05'2 4.6
2018-Feb-11 04:01N 26°04' W 080°07'0 0.8
2018-Feb-11 03:30N 26°05' W 080°07'0 0.7
2018-Feb-11 03:00N 26°04' W 080°07'0 0.0
2018-Feb-11 02:30N 26°04' W 080°07'0 0.4
2018-Feb-11 02:00N 26°04' W 080°07'1 2.5
2018-Feb-11 01:31N 26°04' W 080°08'0 0.1
2018-Feb-11 01:00N 26°04' W 080°08'0 0.0
2018-Feb-11 00:31N 26°04' W 080°08'0 0.0
2018-Feb-11 00:01N 26°04' W 080°08'0 0.0
2018-Feb-10 23:30N 26°04' W 080°08'0 0.0
2018-Feb-10 23:01N 26°04' W 080°08'0 0.0
2018-Feb-10 22:31N 26°04' W 080°08'0 0.0
2018-Feb-10 22:01N 26°04' W 080°08'0 0.0
2018-Feb-10 21:31N 26°04' W 080°08'0 0.0
2018-Feb-10 21:01N 26°04' W 080°08'0 0.0
2018-Feb-10 20:31N 26°04' W 080°08'0 0.0
2018-Feb-10 20:00N 26°04' W 080°08'0 0.0
2018-Feb-10 19:31N 26°04' W 080°08'0 0.0
2018-Feb-10 19:01N 26°04' W 080°08'0 0.0
2018-Feb-10 18:31N 26°04' W 080°08'0 0.0
2018-Feb-10 18:01N 26°04' W 080°08'0 0.0
2018-Feb-10 17:30N 26°04' W 080°08'0 0.0
2018-Feb-10 17:00N 26°04' W 080°08'0 0.0
2018-Feb-10 16:30N 26°04' W 080°08'0 0.0
2018-Feb-10 16:01N 26°04' W 080°08'0 0.0
2018-Feb-10 15:30N 26°04' W 080°08'0 0.0
2018-Feb-10 15:00N 26°04' W 080°08'0 0.0
2018-Feb-10 14:31N 26°04' W 080°08'0 0.0
2018-Feb-10 14:01N 26°04' W 080°08'0 0.0
2018-Feb-10 13:30N 26°04' W 080°08'0 0.0
2018-Feb-10 13:01N 26°04' W 080°08'0 0.4
2018-Feb-10 12:30N 26°04' W 080°08'1 2.1
2018-Feb-10 12:00N 26°04' W 080°07'1 3.0
2018-Feb-10 11:30N 26°06' W 080°06'5 9.7
2018-Feb-10 10:59N 26°04' W 080°01'5 9.8
2018-Feb-10 10:29N 26°01' W 079°56'4 9.3
2018-Feb-10 10:00N 26°00' W 079°51'5 9.3
2018-Feb-10 09:30N 25°59' W 079°46'5 9.3
2018-Feb-10 09:00N 25°59' W 079°41'5 9.7
2018-Feb-10 08:29N 25°57' W 079°36'  

Dump ship's entire track history